sensor_id;sensor_type;location;lat;lon;timestamp;temperature;humidity
3298;DHT22;1661;53.572;10.174;2023-07-31T00:00:08;16.50;86.00
3298;DHT22;1661;53.572;10.174;2023-07-31T00:02:35;16.40;86.70
3298;DHT22;1661;53.572;10.174;2023-07-31T00:05:02;16.40;86.60
3298;DHT22;1661;53.572;10.174;2023-07-31T00:07:29;16.40;86.60
3298;DHT22;1661;53.572;10.174;2023-07-31T00:09:57;16.40;86.50
3298;DHT22;1661;53.572;10.174;2023-07-31T00:12:24;16.40;86.60
3298;DHT22;1661;53.572;10.174;2023-07-31T00:14:51;16.40;86.40
3298;DHT22;1661;53.572;10.174;2023-07-31T00:17:18;16.40;86.90
3298;DHT22;1661;53.572;10.174;2023-07-31T00:19:44;16.40;86.60
3298;DHT22;1661;53.572;10.174;2023-07-31T00:22:11;16.40;86.60
3298;DHT22;1661;53.572;10.174;2023-07-31T00:24:38;16.40;87.00
3298;DHT22;1661;53.572;10.174;2023-07-31T00:27:06;16.40;87.30
3298;DHT22;1661;53.572;10.174;2023-07-31T00:29:33;16.40;87.20
3298;DHT22;1661;53.572;10.174;2023-07-31T00:32:00;16.40;87.10
3298;DHT22;1661;53.572;10.174;2023-07-31T00:34:27;16.30;87.30
3298;DHT22;1661;53.572;10.174;2023-07-31T00:36:53;16.30;87.70
3298;DHT22;1661;53.572;10.174;2023-07-31T00:39:20;16.30;87.70
3298;DHT22;1661;53.572;10.174;2023-07-31T00:41:47;16.30;87.80
3298;DHT22;1661;53.572;10.174;2023-07-31T00:44:15;16.30;87.80
3298;DHT22;1661;53.572;10.174;2023-07-31T00:46:42;16.30;87.50
3298;DHT22;1661;53.572;10.174;2023-07-31T00:49:09;16.30;87.70
3298;DHT22;1661;53.572;10.174;2023-07-31T00:51:36;16.30;87.70
3298;DHT22;1661;53.572;10.174;2023-07-31T00:54:04;16.30;87.60
3298;DHT22;1661;53.572;10.174;2023-07-31T00:56:30;16.30;87.80
3298;DHT22;1661;53.572;10.174;2023-07-31T00:58:57;16.30;87.80
3298;DHT22;1661;53.572;10.174;2023-07-31T01:01:25;16.30;87.50
3298;DHT22;1661;53.572;10.174;2023-07-31T01:03:53;16.40;87.50
3298;DHT22;1661;53.572;10.174;2023-07-31T01:06:25;16.40;87.30
3298;DHT22;1661;53.572;10.174;2023-07-31T01:09:00;16.40;87.50
3298;DHT22;1661;53.572;10.174;2023-07-31T01:11:29;16.40;87.30
3298;DHT22;1661;53.572;10.174;2023-07-31T01:13:57;16.40;87.10
3298;DHT22;1661;53.572;10.174;2023-07-31T01:16:26;16.40;87.30
3298;DHT22;1661;53.572;10.174;2023-07-31T01:18:53;16.40;87.30
3298;DHT22;1661;53.572;10.174;2023-07-31T01:21:45;16.30;87.50
3298;DHT22;1661;53.572;10.174;2023-07-31T01:24:21;16.40;87.20
3298;DHT22;1661;53.572;10.174;2023-07-31T01:26:55;16.40;87.10
3298;DHT22;1661;53.572;10.174;2023-07-31T01:29:29;16.30;87.20
3298;DHT22;1661;53.572;10.174;2023-07-31T01:32:01;16.20;87.50
3298;DHT22;1661;53.572;10.174;2023-07-31T01:34:29;16.20;87.80
3298;DHT22;1661;53.572;10.174;2023-07-31T01:36:56;16.20;87.90
3298;DHT22;1661;53.572;10.174;2023-07-31T01:39:23;16.10;88.10
3298;DHT22;1661;53.572;10.174;2023-07-31T01:41:51;16.10;88.30
3298;DHT22;1661;53.572;10.174;2023-07-31T01:44:18;16.10;88.30
3298;DHT22;1661;53.572;10.174;2023-07-31T01:46:45;16.10;88.60
3298;DHT22;1661;53.572;10.174;2023-07-31T01:49:11;16.00;88.60
3298;DHT22;1661;53.572;10.174;2023-07-31T01:51:38;16.00;88.90
3298;DHT22;1661;53.572;10.174;2023-07-31T01:54:05;15.90;89.30
3298;DHT22;1661;53.572;10.174;2023-07-31T01:56:32;15.90;89.60
3298;DHT22;1661;53.572;10.174;2023-07-31T01:59:00;15.90;89.60
3298;DHT22;1661;53.572;10.174;2023-07-31T02:01:27;16.00;89.40
3298;DHT22;1661;53.572;10.174;2023-07-31T02:03:53;16.00;89.10
3298;DHT22;1661;53.572;10.174;2023-07-31T02:06:20;16.00;89.20
3298;DHT22;1661;53.572;10.174;2023-07-31T02:08:48;16.10;89.00
3298;DHT22;1661;53.572;10.174;2023-07-31T02:11:14;16.10;88.80
3298;DHT22;1661;53.572;10.174;2023-07-31T02:13:41;16.10;88.70
3298;DHT22;1661;53.572;10.174;2023-07-31T02:16:09;16.10;88.70
3298;DHT22;1661;53.572;10.174;2023-07-31T02:18:36;16.10;88.60
3298;DHT22;1661;53.572;10.174;2023-07-31T02:21:03;16.10;88.50
3298;DHT22;1661;53.572;10.174;2023-07-31T02:23:30;16.10;88.50
3298;DHT22;1661;53.572;10.174;2023-07-31T02:25:56;16.10;88.70
3298;DHT22;1661;53.572;10.174;2023-07-31T02:28:23;16.10;88.90
3298;DHT22;1661;53.572;10.174;2023-07-31T02:30:50;16.10;88.80
3298;DHT22;1661;53.572;10.174;2023-07-31T02:33:19;16.20;88.30
3298;DHT22;1661;53.572;10.174;2023-07-31T02:35:45;16.20;88.20
3298;DHT22;1661;53.572;10.174;2023-07-31T02:38:12;16.20;88.00
3298;DHT22;1661;53.572;10.174;2023-07-31T02:40:39;16.30;88.00
3298;DHT22;1661;53.572;10.174;2023-07-31T02:43:06;16.30;88.30
3298;DHT22;1661;53.572;10.174;2023-07-31T02:45:33;16.30;88.50
3298;DHT22;1661;53.572;10.174;2023-07-31T02:48:00;16.30;88.80
3298;DHT22;1661;53.572;10.174;2023-07-31T02:50:28;16.30;88.90
3298;DHT22;1661;53.572;10.174;2023-07-31T02:52:55;16.30;89.00
3298;DHT22;1661;53.572;10.174;2023-07-31T02:55:22;16.20;89.30
3298;DHT22;1661;53.572;10.174;2023-07-31T02:57:48;16.30;89.20
3298;DHT22;1661;53.572;10.174;2023-07-31T03:00:17;16.30;89.20
3298;DHT22;1661;53.572;10.174;2023-07-31T03:02:44;16.30;89.20
3298;DHT22;1661;53.572;10.174;2023-07-31T03:05:11;16.40;89.10
3298;DHT22;1661;53.572;10.174;2023-07-31T03:07:39;16.40;89.10
3298;DHT22;1661;53.572;10.174;2023-07-31T03:10:07;16.40;89.10
3298;DHT22;1661;53.572;10.174;2023-07-31T03:12:34;16.40;89.30
3298;DHT22;1661;53.572;10.174;2023-07-31T03:15:00;16.40;89.20
3298;DHT22;1661;53.572;10.174;2023-07-31T03:17:27;16.40;89.00
3298;DHT22;1661;53.572;10.174;2023-07-31T03:19:54;16.40;89.00
3298;DHT22;1661;53.572;10.174;2023-07-31T03:22:21;16.40;89.10
3298;DHT22;1661;53.572;10.174;2023-07-31T03:24:49;16.40;89.10
3298;DHT22;1661;53.572;10.174;2023-07-31T03:27:16;16.40;89.60
3298;DHT22;1661;53.572;10.174;2023-07-31T03:29:42;16.40;89.50
3298;DHT22;1661;53.572;10.174;2023-07-31T03:32:09;16.40;89.70
3298;DHT22;1661;53.572;10.174;2023-07-31T03:34:36;16.40;89.50
3298;DHT22;1661;53.572;10.174;2023-07-31T03:37:03;16.40;89.50
3298;DHT22;1661;53.572;10.174;2023-07-31T03:39:31;16.50;89.70
3298;DHT22;1661;53.572;10.174;2023-07-31T03:41:59;16.50;89.50
3298;DHT22;1661;53.572;10.174;2023-07-31T03:44:26;16.50;89.20
3298;DHT22;1661;53.572;10.174;2023-07-31T03:46:52;16.50;89.30
3298;DHT22;1661;53.572;10.174;2023-07-31T03:49:19;16.60;89.50
3298;DHT22;1661;53.572;10.174;2023-07-31T03:51:46;16.60;89.70
3298;DHT22;1661;53.572;10.174;2023-07-31T03:54:13;16.60;89.80
3298;DHT22;1661;53.572;10.174;2023-07-31T03:56:39;16.60;90.00
3298;DHT22;1661;53.572;10.174;2023-07-31T03:59:08;16.70;89.70
3298;DHT22;1661;53.572;10.174;2023-07-31T04:01:34;16.70;89.70
3298;DHT22;1661;53.572;10.174;2023-07-31T04:04:01;16.70;89.50
3298;DHT22;1661;53.572;10.174;2023-07-31T04:06:28;16.70;89.90
3298;DHT22;1661;53.572;10.174;2023-07-31T04:08:55;16.80;90.00
3298;DHT22;1661;53.572;10.174;2023-07-31T04:11:21;16.80;90.10
3298;DHT22;1661;53.572;10.174;2023-07-31T04:13:48;16.80;90.30
3298;DHT22;1661;53.572;10.174;2023-07-31T04:16:16;16.70;90.50
3298;DHT22;1661;53.572;10.174;2023-07-31T04:18:43;16.80;90.60
3298;DHT22;1661;53.572;10.174;2023-07-31T04:21:10;16.80;90.50
3298;DHT22;1661;53.572;10.174;2023-07-31T04:23:37;16.80;90.50
3298;DHT22;1661;53.572;10.174;2023-07-31T04:26:04;16.80;90.70
3298;DHT22;1661;53.572;10.174;2023-07-31T04:28:31;16.70;90.70
3298;DHT22;1661;53.572;10.174;2023-07-31T04:30:58;16.70;90.70
3298;DHT22;1661;53.572;10.174;2023-07-31T04:33:26;16.70;90.90
3298;DHT22;1661;53.572;10.174;2023-07-31T04:35:53;16.80;91.00
3298;DHT22;1661;53.572;10.174;2023-07-31T04:38:20;16.80;91.00
3298;DHT22;1661;53.572;10.174;2023-07-31T04:40:47;16.80;91.00
3298;DHT22;1661;53.572;10.174;2023-07-31T04:43:14;16.90;90.90
3298;DHT22;1661;53.572;10.174;2023-07-31T04:45:42;16.90;90.90
3298;DHT22;1661;53.572;10.174;2023-07-31T04:48:11;16.90;90.90
3298;DHT22;1661;53.572;10.174;2023-07-31T04:50:39;16.90;90.90
3298;DHT22;1661;53.572;10.174;2023-07-31T04:53:06;16.90;90.90
3298;DHT22;1661;53.572;10.174;2023-07-31T04:55:33;16.90;90.90
3298;DHT22;1661;53.572;10.174;2023-07-31T04:57:59;16.90;90.90
3298;DHT22;1661;53.572;10.174;2023-07-31T05:00:26;16.90;91.00
3298;DHT22;1661;53.572;10.174;2023-07-31T05:02:53;16.90;91.10
3298;DHT22;1661;53.572;10.174;2023-07-31T05:05:20;16.90;91.10
3298;DHT22;1661;53.572;10.174;2023-07-31T05:07:48;16.90;91.10
3298;DHT22;1661;53.572;10.174;2023-07-31T05:10:15;16.90;91.00
3298;DHT22;1661;53.572;10.174;2023-07-31T05:12:41;16.90;91.10
3298;DHT22;1661;53.572;10.174;2023-07-31T05:15:09;16.90;91.20
3298;DHT22;1661;53.572;10.174;2023-07-31T05:17:36;16.90;91.10
3298;DHT22;1661;53.572;10.174;2023-07-31T05:20:03;16.90;91.10
3298;DHT22;1661;53.572;10.174;2023-07-31T05:22:30;16.90;91.10
3298;DHT22;1661;53.572;10.174;2023-07-31T05:24:58;16.90;91.10
3298;DHT22;1661;53.572;10.174;2023-07-31T05:27:25;17.00;91.20
3298;DHT22;1661;53.572;10.174;2023-07-31T05:29:52;17.00;91.10
3298;DHT22;1661;53.572;10.174;2023-07-31T05:32:18;17.00;91.10
3298;DHT22;1661;53.572;10.174;2023-07-31T05:34:45;17.00;91.10
3298;DHT22;1661;53.572;10.174;2023-07-31T05:37:12;17.10;90.90
3298;DHT22;1661;53.572;10.174;2023-07-31T05:39:39;17.10;90.90
3298;DHT22;1661;53.572;10.174;2023-07-31T05:42:07;17.10;90.90
3298;DHT22;1661;53.572;10.174;2023-07-31T05:44:34;17.10;90.90
3298;DHT22;1661;53.572;10.174;2023-07-31T05:47:01;17.10;90.80
3298;DHT22;1661;53.572;10.174;2023-07-31T05:49:27;17.10;90.80
3298;DHT22;1661;53.572;10.174;2023-07-31T05:51:54;17.10;90.80
3298;DHT22;1661;53.572;10.174;2023-07-31T05:54:21;17.10;90.70
3298;DHT22;1661;53.572;10.174;2023-07-31T05:56:48;17.10;90.70
3298;DHT22;1661;53.572;10.174;2023-07-31T05:59:16;17.00;90.90
3298;DHT22;1661;53.572;10.174;2023-07-31T06:01:43;17.10;91.10
3298;DHT22;1661;53.572;10.174;2023-07-31T06:04:10;17.10;91.10
3298;DHT22;1661;53.572;10.174;2023-07-31T06:06:36;17.10;91.20
3298;DHT22;1661;53.572;10.174;2023-07-31T06:09:03;17.00;91.30
3298;DHT22;1661;53.572;10.174;2023-07-31T06:11:30;17.00;91.30
3298;DHT22;1661;53.572;10.174;2023-07-31T06:13:57;17.00;91.40
3298;DHT22;1661;53.572;10.174;2023-07-31T06:16:25;17.10;91.40
3298;DHT22;1661;53.572;10.174;2023-07-31T06:18:52;17.10;91.30
3298;DHT22;1661;53.572;10.174;2023-07-31T06:21:19;17.10;91.50
3298;DHT22;1661;53.572;10.174;2023-07-31T06:23:46;17.10;91.40
3298;DHT22;1661;53.572;10.174;2023-07-31T06:26:13;17.20;91.40
3298;DHT22;1661;53.572;10.174;2023-07-31T06:28:40;17.20;91.30
3298;DHT22;1661;53.572;10.174;2023-07-31T06:31:06;17.30;91.30
3298;DHT22;1661;53.572;10.174;2023-07-31T06:33:34;17.30;91.20
3298;DHT22;1661;53.572;10.174;2023-07-31T06:36:01;17.30;91.30
3298;DHT22;1661;53.572;10.174;2023-07-31T06:38:28;17.40;91.20
3298;DHT22;1661;53.572;10.174;2023-07-31T06:40:55;17.30;90.60
3298;DHT22;1661;53.572;10.174;2023-07-31T06:43:22;17.40;91.00
3298;DHT22;1661;53.572;10.174;2023-07-31T06:45:48;17.30;91.00
3298;DHT22;1661;53.572;10.174;2023-07-31T06:48:16;17.30;91.30
3298;DHT22;1661;53.572;10.174;2023-07-31T06:50:45;17.40;91.30
3298;DHT22;1661;53.572;10.174;2023-07-31T06:53:11;17.40;91.30
3298;DHT22;1661;53.572;10.174;2023-07-31T06:55:38;17.40;91.20
3298;DHT22;1661;53.572;10.174;2023-07-31T06:58:05;17.40;91.30
3298;DHT22;1661;53.572;10.174;2023-07-31T07:00:32;17.40;91.30
3298;DHT22;1661;53.572;10.174;2023-07-31T07:02:59;17.40;91.50
3298;DHT22;1661;53.572;10.174;2023-07-31T07:05:25;17.50;91.40
3298;DHT22;1661;53.572;10.174;2023-07-31T07:07:54;17.40;91.40
3298;DHT22;1661;53.572;10.174;2023-07-31T07:10:21;17.40;91.60
3298;DHT22;1661;53.572;10.174;2023-07-31T07:12:47;17.40;91.80
3298;DHT22;1661;53.572;10.174;2023-07-31T07:15:15;17.40;91.60
3298;DHT22;1661;53.572;10.174;2023-07-31T07:17:42;17.40;91.60
3298;DHT22;1661;53.572;10.174;2023-07-31T07:20:09;17.40;91.30
3298;DHT22;1661;53.572;10.174;2023-07-31T07:22:36;17.40;91.60
3298;DHT22;1661;53.572;10.174;2023-07-31T07:25:04;17.50;91.30
3298;DHT22;1661;53.572;10.174;2023-07-31T07:27:32;17.50;91.40
3298;DHT22;1661;53.572;10.174;2023-07-31T07:29:59;17.50;91.40
3298;DHT22;1661;53.572;10.174;2023-07-31T07:32:26;17.50;91.40
3298;DHT22;1661;53.572;10.174;2023-07-31T07:34:53;17.60;91.50
3298;DHT22;1661;53.572;10.174;2023-07-31T07:37:20;17.60;91.40
3298;DHT22;1661;53.572;10.174;2023-07-31T07:39:46;17.60;91.30
3298;DHT22;1661;53.572;10.174;2023-07-31T07:42:15;17.70;91.40
3298;DHT22;1661;53.572;10.174;2023-07-31T07:44:41;17.70;91.50
3298;DHT22;1661;53.572;10.174;2023-07-31T07:47:08;17.70;91.40
3298;DHT22;1661;53.572;10.174;2023-07-31T07:49:35;17.80;91.30
3298;DHT22;1661;53.572;10.174;2023-07-31T07:52:02;17.80;91.20
3298;DHT22;1661;53.572;10.174;2023-07-31T07:54:30;17.80;91.10
3298;DHT22;1661;53.572;10.174;2023-07-31T07:56:57;17.80;91.00
3298;DHT22;1661;53.572;10.174;2023-07-31T07:59:25;17.80;90.90
3298;DHT22;1661;53.572;10.174;2023-07-31T08:01:52;17.80;90.90
3298;DHT22;1661;53.572;10.174;2023-07-31T08:04:18;17.90;90.90
3298;DHT22;1661;53.572;10.174;2023-07-31T08:06:45;17.90;90.80
3298;DHT22;1661;53.572;10.174;2023-07-31T08:09:12;17.90;90.90
3298;DHT22;1661;53.572;10.174;2023-07-31T08:11:39;17.80;90.90
3298;DHT22;1661;53.572;10.174;2023-07-31T08:14:05;17.90;91.10
3298;DHT22;1661;53.572;10.174;2023-07-31T08:16:34;17.90;91.40
3298;DHT22;1661;53.572;10.174;2023-07-31T08:19:00;18.00;91.40
3298;DHT22;1661;53.572;10.174;2023-07-31T08:21:27;18.00;91.30
3298;DHT22;1661;53.572;10.174;2023-07-31T08:23:54;18.00;91.40
3298;DHT22;1661;53.572;10.174;2023-07-31T08:26:21;18.10;91.50
3298;DHT22;1661;53.572;10.174;2023-07-31T08:28:48;18.10;91.30
3298;DHT22;1661;53.572;10.174;2023-07-31T08:31:14;18.10;91.20
3298;DHT22;1661;53.572;10.174;2023-07-31T08:33:42;18.10;91.10
3298;DHT22;1661;53.572;10.174;2023-07-31T08:36:09;18.20;91.10
3298;DHT22;1661;53.572;10.174;2023-07-31T08:38:36;18.20;90.90
3298;DHT22;1661;53.572;10.174;2023-07-31T08:41:03;18.20;90.90
3298;DHT22;1661;53.572;10.174;2023-07-31T08:43:31;18.30;91.00
3298;DHT22;1661;53.572;10.174;2023-07-31T08:45:59;18.40;91.00
3298;DHT22;1661;53.572;10.174;2023-07-31T08:48:26;18.40;90.80
3298;DHT22;1661;53.572;10.174;2023-07-31T08:50:55;18.50;90.70
3298;DHT22;1661;53.572;10.174;2023-07-31T08:53:22;18.50;90.90
3298;DHT22;1661;53.572;10.174;2023-07-31T08:55:49;18.60;91.20
3298;DHT22;1661;53.572;10.174;2023-07-31T08:58:19;18.70;91.10
3298;DHT22;1661;53.572;10.174;2023-07-31T09:00:47;18.70;90.50
3298;DHT22;1661;53.572;10.174;2023-07-31T09:03:16;18.70;90.40
3298;DHT22;1661;53.572;10.174;2023-07-31T09:05:44;18.80;90.40
3298;DHT22;1661;53.572;10.174;2023-07-31T09:08:13;18.80;90.60
3298;DHT22;1661;53.572;10.174;2023-07-31T09:10:42;18.90;90.40
3298;DHT22;1661;53.572;10.174;2023-07-31T09:13:09;19.00;90.00
3298;DHT22;1661;53.572;10.174;2023-07-31T09:15:36;19.10;89.50
3298;DHT22;1661;53.572;10.174;2023-07-31T09:18:04;19.10;89.40
3298;DHT22;1661;53.572;10.174;2023-07-31T09:20:31;19.20;89.50
3298;DHT22;1661;53.572;10.174;2023-07-31T09:23:05;19.20;89.00
3298;DHT22;1661;53.572;10.174;2023-07-31T09:25:35;19.20;88.60
3298;DHT22;1661;53.572;10.174;2023-07-31T09:28:04;19.20;88.40
3298;DHT22;1661;53.572;10.174;2023-07-31T09:30:31;19.30;88.20
3298;DHT22;1661;53.572;10.174;2023-07-31T09:33:03;19.30;87.90
3298;DHT22;1661;53.572;10.174;2023-07-31T09:35:32;19.30;87.90
3298;DHT22;1661;53.572;10.174;2023-07-31T09:38:01;19.30;87.50
3298;DHT22;1661;53.572;10.174;2023-07-31T09:40:31;19.30;87.60
3298;DHT22;1661;53.572;10.174;2023-07-31T09:43:01;19.20;87.90
3298;DHT22;1661;53.572;10.174;2023-07-31T09:45:29;19.20;88.40
3298;DHT22;1661;53.572;10.174;2023-07-31T09:47:56;19.20;88.40
3298;DHT22;1661;53.572;10.174;2023-07-31T09:50:24;19.30;88.40
3298;DHT22;1661;53.572;10.174;2023-07-31T09:52:51;19.40;88.40
3298;DHT22;1661;53.572;10.174;2023-07-31T09:55:19;19.40;88.10
3298;DHT22;1661;53.572;10.174;2023-07-31T09:57:47;19.40;88.60
3298;DHT22;1661;53.572;10.174;2023-07-31T10:00:18;19.50;88.30
3298;DHT22;1661;53.572;10.174;2023-07-31T10:02:47;19.50;87.90
3298;DHT22;1661;53.572;10.174;2023-07-31T10:05:15;19.50;87.70
3298;DHT22;1661;53.572;10.174;2023-07-31T10:07:45;19.60;87.80
3298;DHT22;1661;53.572;10.174;2023-07-31T10:10:13;19.50;86.40
3298;DHT22;1661;53.572;10.174;2023-07-31T10:12:40;19.50;86.80
3298;DHT22;1661;53.572;10.174;2023-07-31T10:15:08;19.50;87.10
3298;DHT22;1661;53.572;10.174;2023-07-31T10:17:37;19.60;87.30
3298;DHT22;1661;53.572;10.174;2023-07-31T10:20:06;19.60;87.20
3298;DHT22;1661;53.572;10.174;2023-07-31T10:22:34;19.60;87.40
3298;DHT22;1661;53.572;10.174;2023-07-31T10:25:01;19.60;87.30
3298;DHT22;1661;53.572;10.174;2023-07-31T10:27:27;19.70;87.00
3298;DHT22;1661;53.572;10.174;2023-07-31T10:29:55;19.70;87.20
3298;DHT22;1661;53.572;10.174;2023-07-31T10:32:24;19.80;87.00
3298;DHT22;1661;53.572;10.174;2023-07-31T10:34:53;19.80;86.60
3298;DHT22;1661;53.572;10.174;2023-07-31T10:37:25;19.70;86.40
3298;DHT22;1661;53.572;10.174;2023-07-31T10:40:00;19.60;87.10
3298;DHT22;1661;53.572;10.174;2023-07-31T10:42:34;19.70;87.20
3298;DHT22;1661;53.572;10.174;2023-07-31T10:45:03;19.70;87.10
3298;DHT22;1661;53.572;10.174;2023-07-31T10:47:31;19.70;87.00
3298;DHT22;1661;53.572;10.174;2023-07-31T10:50:18;19.70;86.90
3298;DHT22;1661;53.572;10.174;2023-07-31T10:52:49;19.60;86.50
3298;DHT22;1661;53.572;10.174;2023-07-31T10:55:27;19.60;86.50
3298;DHT22;1661;53.572;10.174;2023-07-31T10:57:55;19.60;86.50
3298;DHT22;1661;53.572;10.174;2023-07-31T11:00:25;19.50;86.40
3298;DHT22;1661;53.572;10.174;2023-07-31T11:03:03;19.50;86.70
3298;DHT22;1661;53.572;10.174;2023-07-31T11:05:48;19.50;87.10
3298;DHT22;1661;53.572;10.174;2023-07-31T11:08:18;19.40;87.30
3298;DHT22;1661;53.572;10.174;2023-07-31T11:10:47;19.30;87.50
3298;DHT22;1661;53.572;10.174;2023-07-31T11:13:14;19.30;87.90
3298;DHT22;1661;53.572;10.174;2023-07-31T11:15:41;19.20;88.20
3298;DHT22;1661;53.572;10.174;2023-07-31T11:18:08;19.10;88.50
3298;DHT22;1661;53.572;10.174;2023-07-31T11:20:37;19.10;89.00
3298;DHT22;1661;53.572;10.174;2023-07-31T11:23:07;19.00;89.40
3298;DHT22;1661;53.572;10.174;2023-07-31T11:25:34;19.10;89.70
3298;DHT22;1661;53.572;10.174;2023-07-31T11:28:04;19.10;90.20
3298;DHT22;1661;53.572;10.174;2023-07-31T11:30:31;19.10;90.40
3298;DHT22;1661;53.572;10.174;2023-07-31T11:32:58;19.20;90.90
3298;DHT22;1661;53.572;10.174;2023-07-31T11:35:24;19.30;91.00
3298;DHT22;1661;53.572;10.174;2023-07-31T11:37:51;19.40;90.70
3298;DHT22;1661;53.572;10.174;2023-07-31T11:40:19;19.40;90.20
3298;DHT22;1661;53.572;10.174;2023-07-31T11:42:46;19.40;90.30
3298;DHT22;1661;53.572;10.174;2023-07-31T11:45:13;19.40;90.50
3298;DHT22;1661;53.572;10.174;2023-07-31T11:47:40;19.40;90.40
3298;DHT22;1661;53.572;10.174;2023-07-31T11:50:10;19.30;90.60
3298;DHT22;1661;53.572;10.174;2023-07-31T11:52:41;19.30;91.00
3298;DHT22;1661;53.572;10.174;2023-07-31T11:55:09;19.10;91.10
3298;DHT22;1661;53.572;10.174;2023-07-31T11:57:39;19.10;91.70
3298;DHT22;1661;53.572;10.174;2023-07-31T12:00:08;19.10;91.80
3298;DHT22;1661;53.572;10.174;2023-07-31T12:02:36;19.10;91.90
3298;DHT22;1661;53.572;10.174;2023-07-31T12:05:05;19.10;91.90
3298;DHT22;1661;53.572;10.174;2023-07-31T12:07:48;19.20;91.80
3298;DHT22;1661;53.572;10.174;2023-07-31T12:10:26;19.00;91.90
3298;DHT22;1661;53.572;10.174;2023-07-31T12:12:59;19.00;92.30
3298;DHT22;1661;53.572;10.174;2023-07-31T12:15:37;19.00;92.40
3298;DHT22;1661;53.572;10.174;2023-07-31T12:18:05;19.00;92.40
3298;DHT22;1661;53.572;10.174;2023-07-31T12:20:32;19.00;92.30
3298;DHT22;1661;53.572;10.174;2023-07-31T12:23:00;19.00;92.50
3298;DHT22;1661;53.572;10.174;2023-07-31T12:25:31;19.10;92.70
3298;DHT22;1661;53.572;10.174;2023-07-31T12:28:04;19.10;92.60
3298;DHT22;1661;53.572;10.174;2023-07-31T12:30:33;19.20;92.60
3298;DHT22;1661;53.572;10.174;2023-07-31T12:33:04;19.30;92.70
3298;DHT22;1661;53.572;10.174;2023-07-31T12:35:47;19.30;92.00
3298;DHT22;1661;53.572;10.174;2023-07-31T12:38:14;19.40;92.10
3298;DHT22;1661;53.572;10.174;2023-07-31T12:40:41;19.40;91.20
3298;DHT22;1661;53.572;10.174;2023-07-31T12:43:09;19.40;90.70
3298;DHT22;1661;53.572;10.174;2023-07-31T12:45:36;19.40;90.50
3298;DHT22;1661;53.572;10.174;2023-07-31T12:48:03;19.40;89.70
3298;DHT22;1661;53.572;10.174;2023-07-31T12:50:30;19.40;89.30
3298;DHT22;1661;53.572;10.174;2023-07-31T12:52:57;19.50;89.30
3298;DHT22;1661;53.572;10.174;2023-07-31T12:55:24;19.50;88.90
3298;DHT22;1661;53.572;10.174;2023-07-31T12:57:51;19.50;88.70
3298;DHT22;1661;53.572;10.174;2023-07-31T13:00:19;19.40;87.90
3298;DHT22;1661;53.572;10.174;2023-07-31T13:02:46;19.30;88.40
3298;DHT22;1661;53.572;10.174;2023-07-31T13:05:13;19.30;88.80
3298;DHT22;1661;53.572;10.174;2023-07-31T13:07:40;19.30;88.40
3298;DHT22;1661;53.572;10.174;2023-07-31T13:10:08;19.30;88.40
3298;DHT22;1661;53.572;10.174;2023-07-31T13:12:34;19.30;88.20
3298;DHT22;1661;53.572;10.174;2023-07-31T13:15:01;19.30;87.90
3298;DHT22;1661;53.572;10.174;2023-07-31T13:17:29;19.20;87.70
3298;DHT22;1661;53.572;10.174;2023-07-31T13:19:56;19.20;88.10
3298;DHT22;1661;53.572;10.174;2023-07-31T13:22:23;19.20;87.80
3298;DHT22;1661;53.572;10.174;2023-07-31T13:24:50;19.10;87.50
3298;DHT22;1661;53.572;10.174;2023-07-31T13:27:17;19.10;87.80
3298;DHT22;1661;53.572;10.174;2023-07-31T13:29:46;19.10;87.80
3298;DHT22;1661;53.572;10.174;2023-07-31T13:32:12;19.10;87.40
3298;DHT22;1661;53.572;10.174;2023-07-31T13:34:40;19.10;87.20
3298;DHT22;1661;53.572;10.174;2023-07-31T13:37:07;19.10;87.20
3298;DHT22;1661;53.572;10.174;2023-07-31T13:39:34;19.10;87.30
3298;DHT22;1661;53.572;10.174;2023-07-31T13:42:02;19.10;87.40
3298;DHT22;1661;53.572;10.174;2023-07-31T13:44:32;19.10;87.50
3298;DHT22;1661;53.572;10.174;2023-07-31T13:46:59;19.20;87.50
3298;DHT22;1661;53.572;10.174;2023-07-31T13:49:25;19.20;87.70
3298;DHT22;1661;53.572;10.174;2023-07-31T13:51:53;19.20;87.80
3298;DHT22;1661;53.572;10.174;2023-07-31T13:54:21;19.20;88.00
3298;DHT22;1661;53.572;10.174;2023-07-31T13:56:48;19.10;88.10
3298;DHT22;1661;53.572;10.174;2023-07-31T13:59:15;19.20;87.90
3298;DHT22;1661;53.572;10.174;2023-07-31T14:01:42;19.20;87.80
3298;DHT22;1661;53.572;10.174;2023-07-31T14:04:09;19.30;88.10
3298;DHT22;1661;53.572;10.174;2023-07-31T14:06:36;19.30;88.20
3298;DHT22;1661;53.572;10.174;2023-07-31T14:09:04;19.30;88.40
3298;DHT22;1661;53.572;10.174;2023-07-31T14:11:31;19.30;88.40
3298;DHT22;1661;53.572;10.174;2023-07-31T14:13:58;19.30;88.10
3298;DHT22;1661;53.572;10.174;2023-07-31T14:16:26;19.30;88.20
3298;DHT22;1661;53.572;10.174;2023-07-31T14:18:53;19.40;88.70
3298;DHT22;1661;53.572;10.174;2023-07-31T14:21:20;19.40;88.80
3298;DHT22;1661;53.572;10.174;2023-07-31T14:23:47;19.40;89.00
3298;DHT22;1661;53.572;10.174;2023-07-31T14:26:15;19.50;89.30
3298;DHT22;1661;53.572;10.174;2023-07-31T14:28:42;19.50;89.90
3298;DHT22;1661;53.572;10.174;2023-07-31T14:31:09;19.60;90.30
3298;DHT22;1661;53.572;10.174;2023-07-31T14:33:36;19.60;91.10
3298;DHT22;1661;53.572;10.174;2023-07-31T14:36:02;19.70;91.60
3298;DHT22;1661;53.572;10.174;2023-07-31T14:38:29;19.70;91.90
3298;DHT22;1661;53.572;10.174;2023-07-31T14:40:56;19.70;92.20
3298;DHT22;1661;53.572;10.174;2023-07-31T14:43:24;19.70;92.40
3298;DHT22;1661;53.572;10.174;2023-07-31T14:45:51;19.70;92.60
3298;DHT22;1661;53.572;10.174;2023-07-31T14:48:18;19.70;92.70
3298;DHT22;1661;53.572;10.174;2023-07-31T14:50:45;19.70;92.80
3298;DHT22;1661;53.572;10.174;2023-07-31T14:53:12;19.70;92.80
3298;DHT22;1661;53.572;10.174;2023-07-31T14:55:39;19.70;92.80
3298;DHT22;1661;53.572;10.174;2023-07-31T14:58:06;19.70;92.90
3298;DHT22;1661;53.572;10.174;2023-07-31T15:00:34;19.70;93.10
3298;DHT22;1661;53.572;10.174;2023-07-31T15:03:01;19.70;93.10
3298;DHT22;1661;53.572;10.174;2023-07-31T15:05:28;19.70;92.00
3298;DHT22;1661;53.572;10.174;2023-07-31T15:07:55;19.50;91.30
3298;DHT22;1661;53.572;10.174;2023-07-31T15:10:22;19.50;91.20
3298;DHT22;1661;53.572;10.174;2023-07-31T15:12:49;19.40;91.10
3298;DHT22;1661;53.572;10.174;2023-07-31T15:15:17;19.40;91.40
3298;DHT22;1661;53.572;10.174;2023-07-31T15:17:45;19.40;91.70
3298;DHT22;1661;53.572;10.174;2023-07-31T15:20:11;19.50;92.00
3298;DHT22;1661;53.572;10.174;2023-07-31T15:22:38;19.50;92.40
3298;DHT22;1661;53.572;10.174;2023-07-31T15:25:06;19.50;92.70
3298;DHT22;1661;53.572;10.174;2023-07-31T15:27:33;19.40;93.30
3298;DHT22;1661;53.572;10.174;2023-07-31T15:30:00;19.40;93.60
3298;DHT22;1661;53.572;10.174;2023-07-31T15:32:27;19.30;94.00
3298;DHT22;1661;53.572;10.174;2023-07-31T15:34:55;19.40;94.10
3298;DHT22;1661;53.572;10.174;2023-07-31T15:37:22;19.40;94.20
3298;DHT22;1661;53.572;10.174;2023-07-31T15:39:49;19.40;94.30
3298;DHT22;1661;53.572;10.174;2023-07-31T15:42:15;19.40;94.40
3298;DHT22;1661;53.572;10.174;2023-07-31T15:44:42;19.40;94.40
3298;DHT22;1661;53.572;10.174;2023-07-31T15:47:09;19.30;94.50